sensor_id;sensor_type;location;lat;lon;timestamp;P1;durP1;ratioP1;P2;durP2;ratioP2
23290;SDS011;11814;44.686;10.842;2023-05-24T00:00:13;19.52;;;17.52;;
23290;SDS011;11814;44.686;10.842;2023-05-24T00:02:40;18.45;;;15.73;;
23290;SDS011;11814;44.686;10.842;2023-05-24T00:05:07;17.17;;;13.98;;
23290;SDS011;11814;44.686;10.842;2023-05-24T00:07:42;20.05;;;14.98;;
23290;SDS011;11814;44.686;10.842;2023-05-24T00:10:08;16.13;;;14.48;;
23290;SDS011;11814;44.686;10.842;2023-05-24T00:12:35;16.17;;;13.32;;
23290;SDS011;11814;44.686;10.842;2023-05-24T00:15:00;18.63;;;15.45;;
23290;SDS011;11814;44.686;10.842;2023-05-24T00:17:26;23.45;;;15.38;;
23290;SDS011;11814;44.686;10.842;2023-05-24T00:19:54;24.80;;;18.50;;
23290;SDS011;11814;44.686;10.842;2023-05-24T00:22:20;21.90;;;17.75;;
23290;SDS011;11814;44.686;10.842;2023-05-24T00:24:46;19.08;;;16.75;;
23290;SDS011;11814;44.686;10.842;2023-05-24T00:27:13;27.08;;;19.60;;
23290;SDS011;11814;44.686;10.842;2023-05-24T00:29:39;19.20;;;16.55;;
23290;SDS011;11814;44.686;10.842;2023-05-24T00:32:05;24.48;;;16.42;;
23290;SDS011;11814;44.686;10.842;2023-05-24T00:34:30;18.60;;;16.70;;
23290;SDS011;11814;44.686;10.842;2023-05-24T00:36:56;22.02;;;17.67;;
23290;SDS011;11814;44.686;10.842;2023-05-24T00:39:22;23.67;;;21.25;;
23290;SDS011;11814;44.686;10.842;2023-05-24T00:41:48;23.60;;;21.10;;
23290;SDS011;11814;44.686;10.842;2023-05-24T00:44:14;23.63;;;20.90;;
23290;SDS011;11814;44.686;10.842;2023-05-24T00:46:39;24.67;;;20.42;;
23290;SDS011;11814;44.686;10.842;2023-05-24T00:49:06;23.10;;;18.85;;
23290;SDS011;11814;44.686;10.842;2023-05-24T00:51:33;25.65;;;21.95;;
23290;SDS011;11814;44.686;10.842;2023-05-24T00:54:00;24.98;;;20.38;;
23290;SDS011;11814;44.686;10.842;2023-05-24T00:56:26;23.02;;;20.55;;
23290;SDS011;11814;44.686;10.842;2023-05-24T00:58:52;21.88;;;19.30;;
23290;SDS011;11814;44.686;10.842;2023-05-24T01:01:20;24.35;;;21.10;;
23290;SDS011;11814;44.686;10.842;2023-05-24T01:03:50;24.75;;;19.58;;
23290;SDS011;11814;44.686;10.842;2023-05-24T01:06:17;25.60;;;20.38;;
23290;SDS011;11814;44.686;10.842;2023-05-24T01:11:25;22.58;;;18.08;;
23290;SDS011;11814;44.686;10.842;2023-05-24T01:14:09;20.05;;;17.92;;
23290;SDS011;11814;44.686;10.842;2023-05-24T01:19:32;19.65;;;17.13;;
23290;SDS011;11814;44.686;10.842;2023-05-24T01:22:23;23.90;;;15.52;;
23290;SDS011;11814;44.686;10.842;2023-05-24T01:27:35;15.95;;;14.27;;
23290;SDS011;11814;44.686;10.842;2023-05-24T01:30:02;18.55;;;15.80;;
23290;SDS011;11814;44.686;10.842;2023-05-24T01:32:28;16.33;;;14.63;;
23290;SDS011;11814;44.686;10.842;2023-05-24T01:34:54;17.45;;;13.77;;
23290;SDS011;11814;44.686;10.842;2023-05-24T01:37:20;15.82;;;13.43;;
23290;SDS011;11814;44.686;10.842;2023-05-24T01:39:46;18.00;;;14.23;;
23290;SDS011;11814;44.686;10.842;2023-05-24T01:42:21;18.02;;;14.75;;
23290;SDS011;11814;44.686;10.842;2023-05-24T01:50:39;16.05;;;14.35;;
23290;SDS011;11814;44.686;10.842;2023-05-24T01:53:19;19.13;;;13.88;;
23290;SDS011;11814;44.686;10.842;2023-05-24T01:55:47;16.83;;;13.88;;
23290;SDS011;11814;44.686;10.842;2023-05-24T01:58:15;18.65;;;13.75;;
23290;SDS011;11814;44.686;10.842;2023-05-24T02:00:45;18.55;;;13.93;;
23290;SDS011;11814;44.686;10.842;2023-05-24T02:03:12;25.63;;;13.82;;
23290;SDS011;11814;44.686;10.842;2023-05-24T02:05:39;17.85;;;14.32;;
23290;SDS011;11814;44.686;10.842;2023-05-24T02:08:05;18.65;;;15.25;;
23290;SDS011;11814;44.686;10.842;2023-05-24T02:10:30;22.33;;;16.80;;
23290;SDS011;11814;44.686;10.842;2023-05-24T02:12:56;24.42;;;17.35;;
23290;SDS011;11814;44.686;10.842;2023-05-24T02:15:23;26.30;;;20.20;;
23290;SDS011;11814;44.686;10.842;2023-05-24T02:17:50;31.85;;;21.80;;
23290;SDS011;11814;44.686;10.842;2023-05-24T02:20:18;29.33;;;22.00;;
23290;SDS011;11814;44.686;10.842;2023-05-24T02:22:46;27.10;;;22.80;;
23290;SDS011;11814;44.686;10.842;2023-05-24T02:25:12;30.13;;;24.42;;
23290;SDS011;11814;44.686;10.842;2023-05-24T02:27:38;27.13;;;24.20;;
23290;SDS011;11814;44.686;10.842;2023-05-24T02:30:06;27.88;;;24.73;;
23290;SDS011;11814;44.686;10.842;2023-05-24T02:32:32;31.88;;;24.73;;
23290;SDS011;11814;44.686;10.842;2023-05-24T02:34:59;29.98;;;23.35;;
23290;SDS011;11814;44.686;10.842;2023-05-24T02:37:26;24.95;;;21.83;;
23290;SDS011;11814;44.686;10.842;2023-05-24T02:39:52;22.73;;;19.67;;
23290;SDS011;11814;44.686;10.842;2023-05-24T02:42:17;22.33;;;19.15;;
23290;SDS011;11814;44.686;10.842;2023-05-24T02:44:43;27.10;;;20.05;;
23290;SDS011;11814;44.686;10.842;2023-05-24T02:47:13;27.52;;;19.88;;
23290;SDS011;11814;44.686;10.842;2023-05-24T02:49:39;25.33;;;20.00;;
23290;SDS011;11814;44.686;10.842;2023-05-24T02:52:05;23.65;;;20.65;;
23290;SDS011;11814;44.686;10.842;2023-05-24T02:54:31;28.88;;;18.35;;
23290;SDS011;11814;44.686;10.842;2023-05-24T02:56:57;22.00;;;17.67;;
23290;SDS011;11814;44.686;10.842;2023-05-24T02:59:23;22.88;;;18.80;;
23290;SDS011;11814;44.686;10.842;2023-05-24T03:01:49;24.63;;;19.58;;
23290;SDS011;11814;44.686;10.842;2023-05-24T03:04:15;24.58;;;19.88;;
23290;SDS011;11814;44.686;10.842;2023-05-24T03:06:41;24.02;;;18.92;;
23290;SDS011;11814;44.686;10.842;2023-05-24T03:09:07;23.77;;;20.02;;
23290;SDS011;11814;44.686;10.842;2023-05-24T03:11:33;27.38;;;21.60;;
23290;SDS011;11814;44.686;10.842;2023-05-24T03:13:58;25.08;;;19.48;;
23290;SDS011;11814;44.686;10.842;2023-05-24T03:16:24;23.88;;;19.20;;
23290;SDS011;11814;44.686;10.842;2023-05-24T03:18:50;23.83;;;17.77;;
23290;SDS011;11814;44.686;10.842;2023-05-24T03:21:19;23.30;;;19.35;;
23290;SDS011;11814;44.686;10.842;2023-05-24T03:23:45;25.40;;;21.73;;
23290;SDS011;11814;44.686;10.842;2023-05-24T03:26:11;30.02;;;22.15;;
23290;SDS011;11814;44.686;10.842;2023-05-24T03:28:39;28.30;;;18.50;;
23290;SDS011;11814;44.686;10.842;2023-05-24T03:31:06;23.60;;;18.40;;
23290;SDS011;11814;44.686;10.842;2023-05-24T03:33:31;28.52;;;20.13;;
23290;SDS011;11814;44.686;10.842;2023-05-24T03:35:57;32.42;;;23.30;;
23290;SDS011;11814;44.686;10.842;2023-05-24T03:38:24;32.05;;;19.77;;
23290;SDS011;11814;44.686;10.842;2023-05-24T03:40:50;27.08;;;21.65;;
23290;SDS011;11814;44.686;10.842;2023-05-24T03:43:15;32.45;;;21.90;;
23290;SDS011;11814;44.686;10.842;2023-05-24T03:45:42;31.52;;;20.92;;
23290;SDS011;11814;44.686;10.842;2023-05-24T03:48:07;30.38;;;20.65;;
23290;SDS011;11814;44.686;10.842;2023-05-24T03:50:33;30.58;;;21.65;;
23290;SDS011;11814;44.686;10.842;2023-05-24T03:52:59;26.00;;;21.52;;
23290;SDS011;11814;44.686;10.842;2023-05-24T03:55:25;31.15;;;21.33;;
23290;SDS011;11814;44.686;10.842;2023-05-24T03:57:50;31.50;;;22.20;;
23290;SDS011;11814;44.686;10.842;2023-05-24T04:00:16;28.95;;;22.08;;
23290;SDS011;11814;44.686;10.842;2023-05-24T04:02:42;27.27;;;21.90;;
23290;SDS011;11814;44.686;10.842;2023-05-24T04:05:09;30.38;;;23.55;;
23290;SDS011;11814;44.686;10.842;2023-05-24T04:07:35;29.13;;;22.17;;
23290;SDS011;11814;44.686;10.842;2023-05-24T04:10:05;28.70;;;22.77;;
23290;SDS011;11814;44.686;10.842;2023-05-24T04:12:32;31.33;;;23.92;;
23290;SDS011;11814;44.686;10.842;2023-05-24T04:14:58;31.70;;;24.98;;
23290;SDS011;11814;44.686;10.842;2023-05-24T04:17:25;33.20;;;26.58;;
23290;SDS011;11814;44.686;10.842;2023-05-24T04:19:53;29.45;;;25.90;;
23290;SDS011;11814;44.686;10.842;2023-05-24T04:22:19;27.90;;;24.38;;
23290;SDS011;11814;44.686;10.842;2023-05-24T04:24:45;27.60;;;22.27;;
23290;SDS011;11814;44.686;10.842;2023-05-24T04:27:10;26.40;;;23.60;;
23290;SDS011;11814;44.686;10.842;2023-05-24T04:29:38;29.45;;;24.23;;
23290;SDS011;11814;44.686;10.842;2023-05-24T04:32:04;36.25;;;26.33;;
23290;SDS011;11814;44.686;10.842;2023-05-24T04:34:31;34.42;;;26.48;;
23290;SDS011;11814;44.686;10.842;2023-05-24T04:36:58;33.65;;;27.75;;
23290;SDS011;11814;44.686;10.842;2023-05-24T04:39:24;40.30;;;28.98;;
23290;SDS011;11814;44.686;10.842;2023-05-24T04:41:50;33.53;;;26.83;;
23290;SDS011;11814;44.686;10.842;2023-05-24T04:44:17;33.38;;;25.92;;
23290;SDS011;11814;44.686;10.842;2023-05-24T04:46:43;28.80;;;22.80;;
23290;SDS011;11814;44.686;10.842;2023-05-24T04:49:09;30.00;;;21.65;;
23290;SDS011;11814;44.686;10.842;2023-05-24T04:51:34;37.22;;;22.40;;
23290;SDS011;11814;44.686;10.842;2023-05-24T04:54:03;26.65;;;20.92;;
23290;SDS011;11814;44.686;10.842;2023-05-24T04:56:33;26.67;;;19.35;;
23290;SDS011;11814;44.686;10.842;2023-05-24T04:58:59;21.80;;;19.38;;
23290;SDS011;11814;44.686;10.842;2023-05-24T05:01:26;21.45;;;18.05;;
23290;SDS011;11814;44.686;10.842;2023-05-24T05:03:52;23.83;;;18.27;;
23290;SDS011;11814;44.686;10.842;2023-05-24T05:06:17;21.90;;;17.58;;
23290;SDS011;11814;44.686;10.842;2023-05-24T05:08:43;18.75;;;16.70;;
23290;SDS011;11814;44.686;10.842;2023-05-24T05:11:09;20.35;;;17.92;;
23290;SDS011;11814;44.686;10.842;2023-05-24T05:13:34;22.58;;;16.55;;
23290;SDS011;11814;44.686;10.842;2023-05-24T05:16:01;19.55;;;16.52;;
23290;SDS011;11814;44.686;10.842;2023-05-24T05:18:26;20.35;;;14.93;;
23290;SDS011;11814;44.686;10.842;2023-05-24T05:20:52;20.75;;;13.65;;
23290;SDS011;11814;44.686;10.842;2023-05-24T05:23:18;16.90;;;13.75;;
23290;SDS011;11814;44.686;10.842;2023-05-24T05:25:43;18.33;;;12.20;;
23290;SDS011;11814;44.686;10.842;2023-05-24T05:28:09;19.05;;;11.98;;
23290;SDS011;11814;44.686;10.842;2023-05-24T05:30:35;13.73;;;11.18;;
23290;SDS011;11814;44.686;10.842;2023-05-24T05:33:01;12.68;;;10.48;;
23290;SDS011;11814;44.686;10.842;2023-05-24T05:35:29;21.38;;;10.77;;
23290;SDS011;11814;44.686;10.842;2023-05-24T05:37:56;15.57;;;11.38;;
23290;SDS011;11814;44.686;10.842;2023-05-24T05:40:21;17.88;;;10.65;;
23290;SDS011;11814;44.686;10.842;2023-05-24T05:42:47;15.50;;;11.10;;
23290;SDS011;11814;44.686;10.842;2023-05-24T05:45:14;16.85;;;12.88;;
23290;SDS011;11814;44.686;10.842;2023-05-24T05:47:40;16.55;;;13.10;;
23290;SDS011;11814;44.686;10.842;2023-05-24T05:50:07;18.55;;;12.65;;
23290;SDS011;11814;44.686;10.842;2023-05-24T05:52:33;18.90;;;12.60;;
23290;SDS011;11814;44.686;10.842;2023-05-24T05:54:59;21.27;;;13.23;;
23290;SDS011;11814;44.686;10.842;2023-05-24T05:57:25;19.40;;;13.90;;
23290;SDS011;11814;44.686;10.842;2023-05-24T05:59:51;16.88;;;14.23;;
23290;SDS011;11814;44.686;10.842;2023-05-24T06:02:17;23.58;;;15.60;;
23290;SDS011;11814;44.686;10.842;2023-05-24T06:04:43;22.27;;;16.10;;
23290;SDS011;11814;44.686;10.842;2023-05-24T06:07:12;25.63;;;15.70;;
23290;SDS011;11814;44.686;10.842;2023-05-24T06:09:38;24.77;;;15.60;;
23290;SDS011;11814;44.686;10.842;2023-05-24T06:12:04;26.27;;;16.73;;
23290;SDS011;11814;44.686;10.842;2023-05-24T06:14:29;23.05;;;15.32;;
23290;SDS011;11814;44.686;10.842;2023-05-24T06:16:56;26.42;;;16.65;;
23290;SDS011;11814;44.686;10.842;2023-05-24T06:19:22;18.40;;;15.57;;
23290;SDS011;11814;44.686;10.842;2023-05-24T06:21:48;20.00;;;14.80;;
23290;SDS011;11814;44.686;10.842;2023-05-24T06:24:15;18.92;;;14.27;;
23290;SDS011;11814;44.686;10.842;2023-05-24T06:26:51;22.55;;;14.35;;
23290;SDS011;11814;44.686;10.842;2023-05-24T06:29:17;15.43;;;13.23;;
23290;SDS011;11814;44.686;10.842;2023-05-24T06:31:47;21.92;;;12.38;;
23290;SDS011;11814;44.686;10.842;2023-05-24T06:34:13;22.17;;;13.13;;
23290;SDS011;11814;44.686;10.842;2023-05-24T06:36:41;18.60;;;11.95;;
23290;SDS011;11814;44.686;10.842;2023-05-24T06:39:08;17.08;;;12.18;;
23290;SDS011;11814;44.686;10.842;2023-05-24T06:41:34;18.95;;;11.00;;
23290;SDS011;11814;44.686;10.842;2023-05-24T06:44:01;18.33;;;11.43;;
23290;SDS011;11814;44.686;10.842;2023-05-24T06:46:27;14.88;;;10.05;;
23290;SDS011;11814;44.686;10.842;2023-05-24T06:48:53;24.23;;;10.20;;
23290;SDS011;11814;44.686;10.842;2023-05-24T06:51:18;16.65;;;9.60;;
23290;SDS011;11814;44.686;10.842;2023-05-24T06:53:44;16.60;;;9.30;;
23290;SDS011;11814;44.686;10.842;2023-05-24T06:56:10;20.73;;;8.98;;
23290;SDS011;11814;44.686;10.842;2023-05-24T06:58:35;16.33;;;8.23;;
23290;SDS011;11814;44.686;10.842;2023-05-24T07:01:02;14.05;;;8.45;;
23290;SDS011;11814;44.686;10.842;2023-05-24T07:03:29;16.65;;;7.65;;
23290;SDS011;11814;44.686;10.842;2023-05-24T07:05:55;20.02;;;7.85;;
23290;SDS011;11814;44.686;10.842;2023-05-24T07:08:22;15.70;;;7.78;;
23290;SDS011;11814;44.686;10.842;2023-05-24T07:10:51;15.10;;;7.80;;
23290;SDS011;11814;44.686;10.842;2023-05-24T07:13:18;17.33;;;6.93;;
23290;SDS011;11814;44.686;10.842;2023-05-24T07:15:44;10.38;;;7.00;;
23290;SDS011;11814;44.686;10.842;2023-05-24T07:18:13;14.55;;;7.20;;
23290;SDS011;11814;44.686;10.842;2023-05-24T07:20:39;18.58;;;8.88;;
23290;SDS011;11814;44.686;10.842;2023-05-24T07:23:05;15.02;;;8.32;;
23290;SDS011;11814;44.686;10.842;2023-05-24T07:25:32;11.13;;;7.03;;
23290;SDS011;11814;44.686;10.842;2023-05-24T07:27:59;14.60;;;7.72;;
23290;SDS011;11814;44.686;10.842;2023-05-24T07:30:25;12.43;;;9.05;;
23290;SDS011;11814;44.686;10.842;2023-05-24T07:32:51;9.52;;;8.50;;
23290;SDS011;11814;44.686;10.842;2023-05-24T07:35:17;12.18;;;9.35;;
23290;SDS011;11814;44.686;10.842;2023-05-24T07:37:43;15.63;;;10.07;;
23290;SDS011;11814;44.686;10.842;2023-05-24T07:40:09;17.20;;;9.10;;
23290;SDS011;11814;44.686;10.842;2023-05-24T07:42:39;14.73;;;9.00;;
23290;SDS011;11814;44.686;10.842;2023-05-24T07:45:06;15.27;;;9.95;;
23290;SDS011;11814;44.686;10.842;2023-05-24T07:47:35;10.55;;;9.25;;
23290;SDS011;11814;44.686;10.842;2023-05-24T07:50:01;14.68;;;9.35;;
23290;SDS011;11814;44.686;10.842;2023-05-24T07:52:27;14.32;;;10.32;;
23290;SDS011;11814;44.686;10.842;2023-05-24T07:54:53;14.00;;;10.38;;
23290;SDS011;11814;44.686;10.842;2023-05-24T07:57:19;11.75;;;9.05;;
23290;SDS011;11814;44.686;10.842;2023-05-24T07:59:45;12.35;;;9.65;;
23290;SDS011;11814;44.686;10.842;2023-05-24T08:02:11;11.80;;;9.35;;
23290;SDS011;11814;44.686;10.842;2023-05-24T08:04:38;10.93;;;9.30;;
23290;SDS011;11814;44.686;10.842;2023-05-24T08:07:04;12.80;;;10.25;;
23290;SDS011;11814;44.686;10.842;2023-05-24T08:09:30;15.60;;;10.43;;
23290;SDS011;11814;44.686;10.842;2023-05-24T08:12:06;12.52;;;8.52;;
23290;SDS011;11814;44.686;10.842;2023-05-24T08:14:32;14.63;;;9.93;;
23290;SDS011;11814;44.686;10.842;2023-05-24T08:16:58;12.25;;;9.70;;
23290;SDS011;11814;44.686;10.842;2023-05-24T08:19:25;15.35;;;10.30;;
23290;SDS011;11814;44.686;10.842;2023-05-24T08:21:51;14.77;;;9.75;;
23290;SDS011;11814;44.686;10.842;2023-05-24T08:24:28;14.50;;;9.05;;
23290;SDS011;11814;44.686;10.842;2023-05-24T08:26:55;11.45;;;9.73;;
23290;SDS011;11814;44.686;10.842;2023-05-24T08:29:21;14.48;;;9.45;;
23290;SDS011;11814;44.686;10.842;2023-05-24T08:31:46;16.35;;;9.70;;
23290;SDS011;11814;44.686;10.842;2023-05-24T08:34:12;12.48;;;9.38;;
23290;SDS011;11814;44.686;10.842;2023-05-24T08:36:39;12.80;;;9.68;;
23290;SDS011;11814;44.686;10.842;2023-05-24T08:39:07;13.05;;;9.10;;
23290;SDS011;11814;44.686;10.842;2023-05-24T08:41:33;14.00;;;9.57;;
23290;SDS011;11814;44.686;10.842;2023-05-24T08:44:01;13.70;;;9.15;;
23290;SDS011;11814;44.686;10.842;2023-05-24T08:46:31;14.38;;;9.23;;
23290;SDS011;11814;44.686;10.842;2023-05-24T08:48:59;25.92;;;8.80;;
23290;SDS011;11814;44.686;10.842;2023-05-24T08:51:28;12.15;;;9.15;;
23290;SDS011;11814;44.686;10.842;2023-05-24T08:54:00;14.43;;;9.30;;
23290;SDS011;11814;44.686;10.842;2023-05-24T08:56:27;12.13;;;9.75;;
23290;SDS011;11814;44.686;10.842;2023-05-24T08:58:54;14.93;;;10.20;;
23290;SDS011;11814;44.686;10.842;2023-05-24T09:01:20;12.43;;;9.88;;
23290;SDS011;11814;44.686;10.842;2023-05-24T09:03:48;22.23;;;9.95;;
23290;SDS011;11814;44.686;10.842;2023-05-24T09:06:16;12.35;;;8.82;;
23290;SDS011;11814;44.686;10.842;2023-05-24T09:08:43;14.38;;;9.45;;
23290;SDS011;11814;44.686;10.842;2023-05-24T09:11:10;15.73;;;9.10;;
23290;SDS011;11814;44.686;10.842;2023-05-24T09:13:36;11.02;;;8.80;;
23290;SDS011;11814;44.686;10.842;2023-05-24T09:16:04;15.57;;;9.60;;
23290;SDS011;11814;44.686;10.842;2023-05-24T09:18:30;12.98;;;9.50;;
23290;SDS011;11814;44.686;10.842;2023-05-24T09:20:56;12.45;;;9.43;;
23290;SDS011;11814;44.686;10.842;2023-05-24T09:23:21;18.58;;;8.80;;
23290;SDS011;11814;44.686;10.842;2023-05-24T09:25:50;12.60;;;8.25;;
23290;SDS011;11814;44.686;10.842;2023-05-24T09:28:16;10.88;;;7.63;;
23290;SDS011;11814;44.686;10.842;2023-05-24T09:30:43;13.18;;;9.38;;
23290;SDS011;11814;44.686;10.842;2023-05-24T09:33:10;11.77;;;9.43;;
23290;SDS011;11814;44.686;10.842;2023-05-24T09:35:40;13.85;;;9.15;;
23290;SDS011;11814;44.686;10.842;2023-05-24T09:38:14;15.13;;;8.05;;
23290;SDS011;11814;44.686;10.842;2023-05-24T09:40:44;14.20;;;8.68;;
23290;SDS011;11814;44.686;10.842;2023-05-24T09:43:11;11.15;;;8.75;;
23290;SDS011;11814;44.686;10.842;2023-05-24T09:45:37;13.30;;;8.63;;
23290;SDS011;11814;44.686;10.842;2023-05-24T09:48:11;13.10;;;9.38;;
23290;SDS011;11814;44.686;10.842;2023-05-24T09:50:38;10.77;;;7.90;;
23290;SDS011;11814;44.686;10.842;2023-05-24T09:53:04;12.00;;;8.13;;
23290;SDS011;11814;44.686;10.842;2023-05-24T09:55:30;9.55;;;6.97;;
23290;SDS011;11814;44.686;10.842;2023-05-24T09:58:04;9.38;;;7.00;;
23290;SDS011;11814;44.686;10.842;2023-05-24T10:00:37;11.30;;;7.10;;
23290;SDS011;11814;44.686;10.842;2023-05-24T10:03:08;9.35;;;6.65;;
23290;SDS011;11814;44.686;10.842;2023-05-24T10:05:35;15.32;;;8.00;;
23290;SDS011;11814;44.686;10.842;2023-05-24T10:08:02;15.85;;;9.27;;
23290;SDS011;11814;44.686;10.842;2023-05-24T10:10:33;12.73;;;8.75;;
23290;SDS011;11814;44.686;10.842;2023-05-24T10:13:01;12.45;;;9.52;;
23290;SDS011;11814;44.686;10.842;2023-05-24T10:15:27;15.65;;;10.30;;
23290;SDS011;11814;44.686;10.842;2023-05-24T10:17:53;12.55;;;10.80;;
23290;SDS011;11814;44.686;10.842;2023-05-24T10:20:20;12.63;;;9.57;;
23290;SDS011;11814;44.686;10.842;2023-05-24T10:22:57;18.33;;;10.55;;
23290;SDS011;11814;44.686;10.842;2023-05-24T10:25:28;20.58;;;11.02;;
23290;SDS011;11814;44.686;10.842;2023-05-24T10:27:57;14.80;;;10.18;;
23290;SDS011;11814;44.686;10.842;2023-05-24T10:30:33;13.13;;;8.95;;
23290;SDS011;11814;44.686;10.842;2023-05-24T10:33:00;13.57;;;10.50;;
23290;SDS011;11814;44.686;10.842;2023-05-24T10:35:26;13.45;;;9.55;;
23290;SDS011;11814;44.686;10.842;2023-05-24T10:37:53;14.57;;;9.90;;
23290;SDS011;11814;44.686;10.842;2023-05-24T10:40:20;13.75;;;10.10;;
23290;SDS011;11814;44.686;10.842;2023-05-24T10:42:49;18.13;;;11.88;;
23290;SDS011;11814;44.686;10.842;2023-05-24T10:45:32;17.27;;;10.13;;
23290;SDS011;11814;44.686;10.842;2023-05-24T10:50:53;13.10;;;10.68;;
23290;SDS011;11814;44.686;10.842;2023-05-24T10:53:20;17.15;;;9.77;;
23290;SDS011;11814;44.686;10.842;2023-05-24T10:58:17;15.27;;;8.70;;
23290;SDS011;11814;44.686;10.842;2023-05-24T11:00:45;15.90;;;9.38;;
23290;SDS011;11814;44.686;10.842;2023-05-24T11:03:12;13.82;;;9.88;;
23290;SDS011;11814;44.686;10.842;2023-05-24T11:08:21;19.85;;;11.30;;
23290;SDS011;11814;44.686;10.842;2023-05-24T11:11:01;14.27;;;11.65;;
23290;SDS011;11814;44.686;10.842;2023-05-24T11:13:30;19.45;;;12.95;;
23290;SDS011;11814;44.686;10.842;2023-05-24T11:15:57;19.10;;;13.02;;
23290;SDS011;11814;44.686;10.842;2023-05-24T11:18:24;19.08;;;14.10;;
23290;SDS011;11814;44.686;10.842;2023-05-24T11:20:50;20.77;;;13.80;;
23290;SDS011;11814;44.686;10.842;2023-05-24T11:23:16;22.23;;;16.02;;
23290;SDS011;11814;44.686;10.842;2023-05-24T11:25:46;19.65;;;15.15;;
23290;SDS011;11814;44.686;10.842;2023-05-24T11:28:12;16.77;;;12.90;;
23290;SDS011;11814;44.686;10.842;2023-05-24T11:30:42;19.27;;;14.30;;
23290;SDS011;11814;44.686;10.842;2023-05-24T11:33:21;16.35;;;12.60;;
23290;SDS011;11814;44.686;10.842;2023-05-24T11:35:52;14.38;;;11.50;;
23290;SDS011;11814;44.686;10.842;2023-05-24T11:38:18;18.13;;;11.57;;
23290;SDS011;11814;44.686;10.842;2023-05-24T11:40:46;19.60;;;13.13;;
23290;SDS011;11814;44.686;10.842;2023-05-24T11:43:13;19.83;;;15.18;;
23290;SDS011;11814;44.686;10.842;2023-05-24T11:45:44;26.60;;;15.13;;
23290;SDS011;11814;44.686;10.842;2023-05-24T11:48:12;18.30;;;12.88;;
23290;SDS011;11814;44.686;10.842;2023-05-24T11:50:39;17.42;;;10.95;;
23290;SDS011;11814;44.686;10.842;2023-05-24T11:53:11;15.00;;;11.13;;
23290;SDS011;11814;44.686;10.842;2023-05-24T11:55:38;15.82;;;11.43;;
23290;SDS011;11814;44.686;10.842;2023-05-24T11:58:16;14.90;;;11.85;;
23290;SDS011;11814;44.686;10.842;2023-05-24T12:00:49;17.27;;;12.23;;
23290;SDS011;11814;44.686;10.842;2023-05-24T12:03:15;16.73;;;12.05;;
23290;SDS011;11814;44.686;10.842;2023-05-24T12:05:41;21.38;;;14.90;;
23290;SDS011;11814;44.686;10.842;2023-05-24T12:08:08;18.05;;;11.35;;
23290;SDS011;11814;44.686;10.842;2023-05-24T12:10:38;15.48;;;11.32;;
23290;SDS011;11814;44.686;10.842;2023-05-24T12:13:18;16.67;;;12.00;;
23290;SDS011;11814;44.686;10.842;2023-05-24T12:15:52;16.38;;;11.18;;
23290;SDS011;11814;44.686;10.842;2023-05-24T12:18:19;10.40;;;9.07;;
23290;SDS011;11814;44.686;10.842;2023-05-24T12:20:48;15.88;;;9.15;;
23290;SDS011;11814;44.686;10.842;2023-05-24T12:23:15;17.90;;;9.30;;
23290;SDS011;11814;44.686;10.842;2023-05-24T12:25:43;11.40;;;9.00;;
23290;SDS011;11814;44.686;10.842;2023-05-24T12:28:08;14.68;;;8.73;;
23290;SDS011;11814;44.686;10.842;2023-05-24T12:30:35;10.68;;;7.90;;
23290;SDS011;11814;44.686;10.842;2023-05-24T12:33:02;11.32;;;8.45;;
23290;SDS011;11814;44.686;10.842;2023-05-24T12:35:28;10.50;;;7.70;;
23290;SDS011;11814;44.686;10.842;2023-05-24T12:37:57;11.00;;;8.35;;
23290;SDS011;11814;44.686;10.842;2023-05-24T12:40:24;15.73;;;7.85;;
23290;SDS011;11814;44.686;10.842;2023-05-24T12:42:53;12.73;;;8.32;;
23290;SDS011;11814;44.686;10.842;2023-05-24T12:45:24;12.75;;;8.48;;
23290;SDS011;11814;44.686;10.842;2023-05-24T12:47:52;13.07;;;8.18;;
23290;SDS011;11814;44.686;10.842;2023-05-24T12:50:19;10.25;;;7.38;;
23290;SDS011;11814;44.686;10.842;2023-05-24T12:52:47;11.88;;;7.80;;
23290;SDS011;11814;44.686;10.842;2023-05-24T12:55:16;9.98;;;7.07;;
23290;SDS011;11814;44.686;10.842;2023-05-24T12:57:45;8.43;;;6.55;;
23290;SDS011;11814;44.686;10.842;2023-05-24T13:00:17;14.35;;;7.50;;
23290;SDS011;11814;44.686;10.842;2023-05-24T13:02:45;13.65;;;7.43;;
23290;SDS011;11814;44.686;10.842;2023-05-24T13:05:10;10.35;;;7.40;;
23290;SDS011;11814;44.686;10.842;2023-05-24T13:07:36;14.18;;;8.18;;
23290;SDS011;11814;44.686;10.842;2023-05-24T13:10:03;12.90;;;8.38;;
23290;SDS011;11814;44.686;10.842;2023-05-24T13:12:30;11.05;;;7.60;;
23290;SDS011;11814;44.686;10.842;2023-05-24T13:14:56;10.13;;;7.45;;
23290;SDS011;11814;44.686;10.842;2023-05-24T13:17:22;11.40;;;7.70;;
23290;SDS011;11814;44.686;10.842;2023-05-24T13:19:48;10.10;;;7.53;;
23290;SDS011;11814;44.686;10.842;2023-05-24T13:22:14;12.73;;;7.45;;
23290;SDS011;11814;44.686;10.842;2023-05-24T13:24:39;10.80;;;7.32;;
23290;SDS011;11814;44.686;10.842;2023-05-24T13:27:06;15.15;;;7.68;;
23290;SDS011;11814;44.686;10.842;2023-05-24T13:29:32;12.57;;;7.97;;
23290;SDS011;11814;44.686;10.842;2023-05-24T13:31:58;12.95;;;7.82;;
23290;SDS011;11814;44.686;10.842;2023-05-24T13:34:23;18.85;;;3.90;;
23290;SDS011;11814;44.686;10.842;2023-05-24T13:36:51;20.08;;;4.00;;
23290;SDS011;11814;44.686;10.842;2023-05-24T13:39:18;52.45;;;4.80;;
23290;SDS011;11814;44.686;10.842;2023-05-24T13:41:47;40.08;;;5.38;;
23290;SDS011;11814;44.686;10.842;2023-05-24T13:44:15;31.67;;;5.88;;
23290;SDS011;11814;44.686;10.842;2023-05-24T13:46:41;21.40;;;5.47;;
23290;SDS011;11814;44.686;10.842;2023-05-24T13:49:07;19.55;;;6.25;;
23290;SDS011;11814;44.686;10.842;2023-05-24T13:51:34;13.93;;;6.22;;
23290;SDS011;11814;44.686;10.842;2023-05-24T13:54:00;21.00;;;5.90;;
23290;SDS011;11814;44.686;10.842;2023-05-24T13:56:27;13.32;;;7.00;;
23290;SDS011;11814;44.686;10.842;2023-05-24T13:58:58;8.82;;;6.05;;
23290;SDS011;11814;44.686;10.842;2023-05-24T14:01:25;12.40;;;6.10;;
23290;SDS011;11814;44.686;10.842;2023-05-24T14:03:50;10.95;;;5.65;;
23290;SDS011;11814;44.686;10.842;2023-05-24T14:06:17;14.10;;;5.60;;
23290;SDS011;11814;44.686;10.842;2023-05-24T14:08:44;11.82;;;6.90;;
23290;SDS011;11814;44.686;10.842;2023-05-24T14:11:10;11.88;;;5.53;;
23290;SDS011;11814;44.686;10.842;2023-05-24T14:13:38;11.27;;;6.28;;
23290;SDS011;11814;44.686;10.842;2023-05-24T14:16:04;12.45;;;6.38;;
23290;SDS011;11814;44.686;10.842;2023-05-24T14:18:31;18.02;;;7.28;;
23290;SDS011;11814;44.686;10.842;2023-05-24T14:20:57;11.30;;;5.93;;
23290;SDS011;11814;44.686;10.842;2023-05-24T14:23:22;8.27;;;5.20;;
23290;SDS011;11814;44.686;10.842;2023-05-24T14:25:48;11.18;;;5.30;;
23290;SDS011;11814;44.686;10.842;2023-05-24T14:28:16;15.10;;;5.55;;
23290;SDS011;11814;44.686;10.842;2023-05-24T14:30:42;12.73;;;6.47;;
23290;SDS011;11814;44.686;10.842;2023-05-24T14:33:07;14.02;;;5.45;;
23290;SDS011;11814;44.686;10.842;2023-05-24T14:35:35;16.23;;;5.97;;